createdAt,value
2023-02-19T00:01:46.667Z,96376.00
2023-02-19T00:04:14.839Z,96385.50
2023-02-19T00:06:41.879Z,96368.91
2023-02-19T00:09:10.951Z,96386.84
2023-02-19T00:11:38.161Z,96377.03
2023-02-19T00:14:05.305Z,96369.69
2023-02-19T00:16:32.868Z,96376.56
2023-02-19T00:19:00.738Z,96348.63
2023-02-19T00:21:27.897Z,96372.59
2023-02-19T00:23:56.773Z,96371.75
2023-02-19T00:26:23.600Z,96339.97
2023-02-19T00:28:51.779Z,96374.69
2023-02-19T00:31:20.126Z,96373.38
2023-02-19T00:33:47.853Z,96360.50
2023-02-19T00:36:14.964Z,96364.16
2023-02-19T00:38:42.759Z,96368.91
2023-02-19T00:41:19.183Z,96360.19
2023-02-19T00:43:47.883Z,96357.56
2023-02-19T00:46:18.460Z,96366.03
2023-02-19T00:48:45.748Z,96359.69
2023-02-19T00:51:12.538Z,96348.56
2023-02-19T00:53:39.500Z,96340.13
2023-02-19T00:56:07.197Z,96330.13
2023-02-19T00:58:33.864Z,96326.66
2023-02-19T01:01:00.885Z,96320.09
2023-02-19T01:03:27.422Z,96309.53
2023-02-19T01:05:54.567Z,96310.91
2023-02-19T01:08:21.682Z,96330.91
2023-02-19T01:10:48.743Z,96342.25
2023-02-19T01:13:15.513Z,96338.56
2023-02-19T01:15:42.070Z,96312.97
2023-02-19T01:18:09.041Z,96304.56
2023-02-19T01:20:38.760Z,96301.38
2023-02-19T01:23:05.352Z,96317.38
2023-02-19T01:25:31.886Z,96296.34
2023-02-19T01:27:58.314Z,96316.94
2023-02-19T01:30:24.954Z,96314.88
2023-02-19T01:32:51.454Z,96315.34
2023-02-19T01:35:18.569Z,96291.69
2023-02-19T01:37:45.019Z,96323.03
2023-02-19T01:40:11.476Z,96296.94
2023-02-19T01:42:43.434Z,96296.41
2023-02-19T01:45:20.847Z,96300.31
2023-02-19T01:47:53.605Z,96280.03
2023-02-19T01:50:20.635Z,96278.50
2023-02-19T01:52:47.543Z,96258.72
2023-02-19T01:55:14.382Z,96288.47
2023-02-19T01:57:45.791Z,96294.78
2023-02-19T02:00:16.268Z,96294.78
2023-02-19T02:02:45.211Z,96286.72
2023-02-19T02:05:23.389Z,96288.25
2023-02-19T02:08:08.460Z,96296.47
2023-02-19T02:10:36.249Z,96290.44
2023-02-19T02:13:02.703Z,96259.06
2023-02-19T02:15:37.676Z,96280.91
2023-02-19T02:18:31.950Z,96290.63
2023-02-19T02:21:44.592Z,96267.00
2023-02-19T02:24:19.426Z,96279.13
2023-02-19T02:27:12.609Z,96267.84
2023-02-19T02:30:02.237Z,96276.25
2023-02-19T02:33:06.927Z,96273.88
2023-02-19T02:35:42.486Z,96256.75
2023-02-19T02:38:12.904Z,96265.47
2023-02-19T02:40:42.963Z,96248.59
2023-02-19T02:43:10.221Z,96268.34
2023-02-19T02:45:37.162Z,96272.84
2023-02-19T02:48:22.480Z,96267.81
2023-02-19T02:50:58.647Z,96256.81
2023-02-19T02:54:28.844Z,96262.88
2023-02-19T02:56:58.133Z,96248.66
2023-02-19T02:59:32.092Z,96234.19
2023-02-19T03:02:14.864Z,96232.34
2023-02-19T03:05:41.968Z,96243.13
2023-02-19T03:08:13.524Z,96249.16
2023-02-19T03:10:56.072Z,96244.44
2023-02-19T03:13:49.297Z,96225.50
2023-02-19T03:16:40.598Z,96233.66
2023-02-19T03:19:21.135Z,96237.06
2023-02-19T03:21:57.089Z,96214.94
2023-02-19T03:24:47.627Z,96234.69
2023-02-19T03:27:16.408Z,96216.50
2023-02-19T03:29:50.064Z,96226.00
2023-02-19T03:32:32.472Z,96221.50
2023-02-19T03:35:09.555Z,96212.31
2023-02-19T03:37:54.244Z,96220.72
2023-02-19T03:40:24.379Z,96232.56
2023-02-19T03:43:05.085Z,96217.31
2023-02-19T03:46:02.751Z,96227.56
2023-02-19T03:48:37.134Z,96230.94
2023-02-19T03:51:30.772Z,96225.97
2023-02-19T03:54:09.117Z,96222.78
2023-02-19T03:56:47.770Z,96219.63
2023-02-19T03:59:36.240Z,96222.78
2023-02-19T04:02:13.590Z,96212.22
2023-02-19T04:04:53.095Z,96202.19
2023-02-19T04:07:20.609Z,96213.28
2023-02-19T04:09:49.992Z,96197.72
2023-02-19T04:12:20.992Z,96230.63
2023-02-19T04:14:59.999Z,96186.41
2023-02-19T04:17:42.159Z,96182.50
2023-02-19T04:20:10.728Z,96193.50
2023-02-19T04:22:39.087Z,96196.41
2023-02-19T04:25:06.162Z,96194.31
2023-02-19T04:27:35.602Z,96197.94
2023-02-19T04:30:02.229Z,96202.72
2023-02-19T04:32:28.693Z,96157.13
2023-02-19T04:34:55.120Z,96198.16
2023-02-19T04:37:21.567Z,96199.47
2023-02-19T04:39:47.979Z,96218.44
2023-02-19T04:42:14.446Z,96169.72
2023-02-19T04:44:41.002Z,96215.56
2023-02-19T04:47:08.239Z,96198.16
2023-02-19T04:49:34.677Z,96242.38
2023-02-19T04:52:01.238Z,96230.34
2023-02-19T04:54:27.670Z,96216.38
2023-02-19T04:56:54.178Z,96220.06
2023-02-19T04:59:20.740Z,96180.00
2023-02-19T05:01:47.261Z,96236.38
2023-02-19T05:04:13.822Z,96230.06
2023-02-19T05:06:40.260Z,96240.31
2023-02-19T05:09:06.790Z,96230.28
2023-02-19T05:11:33.222Z,96218.44
2023-02-19T05:13:59.682Z,96240.09
2023-02-19T05:16:26.159Z,96201.09
2023-02-19T05:18:52.601Z,96232.94
2023-02-19T05:21:19.306Z,96241.63
2023-02-19T05:23:45.732Z,96225.56
2023-02-19T05:26:17.737Z,96222.44
2023-02-19T05:28:49.486Z,96241.63
2023-02-19T05:31:16.986Z,96227.41
2023-02-19T05:33:44.285Z,96260.13
2023-02-19T05:36:13.010Z,96231.66
2023-02-19T05:38:40.085Z,96234.78
2023-02-19T05:41:13.334Z,96262.22
2023-02-19T05:43:41.500Z,96269.88
2023-02-19T05:46:09.339Z,96250.56
2023-02-19T05:48:36.173Z,96252.44
2023-02-19T05:51:11.904Z,96282.72
2023-02-19T05:53:39.617Z,96279.06
2023-02-19T05:56:26.140Z,96239.50
2023-02-19T05:58:54.407Z,96283.03
2023-02-19T06:01:23.132Z,96283.31
2023-02-19T06:03:49.664Z,96277.47
2023-02-19T06:06:18.440Z,96283.25
2023-02-19T06:08:45.667Z,96266.16
2023-02-19T06:11:12.522Z,96263.28
2023-02-19T06:13:39.152Z,96246.66
2023-02-19T06:16:09.319Z,96253.00
2023-02-19T06:18:35.931Z,96261.13
2023-02-19T06:21:07.195Z,96287.47
2023-02-19T06:23:33.696Z,96277.47
2023-02-19T06:26:12.013Z,96284.34
2023-02-19T06:28:39.756Z,96286.75
2023-02-19T06:31:06.968Z,96291.19
2023-02-19T06:33:34.237Z,96280.09
2023-02-19T06:36:03.537Z,96302.25
2023-02-19T06:38:30.863Z,96293.59
2023-02-19T06:41:05.952Z,96294.63
2023-02-19T06:43:33.502Z,96319.31
2023-02-19T06:46:01.397Z,96309.91
2023-02-19T06:48:29.390Z,96281.72
2023-02-19T06:50:56.018Z,96298.81
2023-02-19T06:53:22.743Z,96318.31
2023-02-19T06:56:06.516Z,96301.44
2023-02-19T06:58:33.563Z,96296.47
2023-02-19T07:01:00.287Z,96308.03
2023-02-19T07:03:26.802Z,96324.09
2023-02-19T07:05:53.655Z,96322.28
2023-02-19T07:08:20.531Z,96324.16
2023-02-19T07:10:56.310Z,96344.44
2023-02-19T07:13:24.117Z,96321.72
2023-02-19T07:15:52.164Z,96352.56
2023-02-19T07:18:19.325Z,96345.47
2023-02-19T07:20:45.755Z,96352.28
2023-02-19T07:23:12.175Z,96347.56
2023-02-19T07:25:39.184Z,96350.16
2023-02-19T07:28:05.966Z,96361.28
2023-02-19T07:30:32.435Z,96359.44
2023-02-19T07:32:58.872Z,96338.88
2023-02-19T07:35:25.407Z,96383.41
2023-02-19T07:37:51.822Z,96365.19
2023-02-19T07:40:18.399Z,96363.38
2023-02-19T07:42:44.820Z,96391.31
2023-02-19T07:45:11.292Z,96363.66
2023-02-19T07:47:37.775Z,96388.69
2023-02-19T07:50:04.322Z,96380.78
2023-02-19T07:52:30.755Z,96403.38
2023-02-19T07:54:57.161Z,96398.63
2023-02-19T07:57:23.623Z,96399.16
2023-02-19T07:59:50.049Z,96416.59
2023-02-19T08:02:36.971Z,96431.09
2023-02-19T08:05:04.639Z,96427.16
2023-02-19T08:07:35.262Z,96430.56
2023-02-19T08:10:22.084Z,96434.28
2023-02-19T08:13:17.899Z,96440.34
2023-02-19T08:15:45.184Z,96436.41
2023-02-19T08:18:14.802Z,96447.47
2023-02-19T08:20:41.290Z,96432.94
2023-02-19T08:23:08.469Z,96453.78
2023-02-19T08:25:35.338Z,96433.97
2023-02-19T08:28:02.038Z,96450.91
2023-02-19T08:30:30.408Z,96444.88
2023-02-19T08:33:01.310Z,96448.22
2023-02-19T08:35:28.729Z,96456.69
2023-02-19T08:37:56.733Z,96433.25
2023-02-19T08:40:24.368Z,96463.34
2023-02-19T08:42:51.162Z,96465.13
2023-02-19T08:45:18.073Z,96426.09
2023-02-19T08:47:44.804Z,96456.19
2023-02-19T08:50:11.739Z,96468.81
2023-02-19T08:52:38.771Z,96486.47
2023-02-19T08:55:06.186Z,96469.28
2023-02-19T08:57:35.700Z,96464.06
2023-02-19T09:00:02.124Z,96475.16
2023-02-19T09:02:29.145Z,96472.75
2023-02-19T09:04:55.623Z,96484.84
2023-02-19T09:07:22.939Z,96488.97
2023-02-19T09:09:49.354Z,96476.84
2023-02-19T09:12:15.803Z,96483.69
2023-02-19T09:14:42.270Z,96492.69
2023-02-19T09:17:09.822Z,96473.13
2023-02-19T09:19:36.887Z,96511.50
2023-02-19T09:22:04.700Z,96520.19
2023-02-19T09:24:31.835Z,96510.41
2023-02-19T09:26:58.694Z,96505.09
2023-02-19T09:29:27.072Z,96507.94
2023-02-19T09:31:58.078Z,96525.59
2023-02-19T09:34:25.949Z,96526.31
2023-02-19T09:36:53.196Z,96540.84
2023-02-19T09:39:20.131Z,96526.50
2023-02-19T09:41:51.069Z,96547.53
2023-02-19T09:44:39.843Z,96548.84
2023-02-19T09:47:15.310Z,96548.94
2023-02-19T09:49:50.158Z,96533.00
2023-02-19T09:52:35.303Z,96537.53
2023-02-19T09:55:10.696Z,96544.13
2023-02-19T09:57:37.373Z,96546.97
2023-02-19T10:00:13.935Z,96534.06
2023-02-19T10:02:40.409Z,96546.75
2023-02-19T10:05:13.838Z,96543.44
2023-02-19T10:07:45.196Z,96524.00
2023-02-19T10:10:14.584Z,96512.31
2023-02-19T10:12:47.488Z,96522.69
2023-02-19T10:15:22.845Z,96523.28
2023-02-19T10:17:49.257Z,96525.94
2023-02-19T10:20:19.940Z,96501.72
2023-02-19T10:22:46.711Z,96516.72
2023-02-19T10:25:16.479Z,96516.72
2023-02-19T10:27:43.916Z,96540.19
2023-02-19T10:30:37.356Z,96531.72
2023-02-19T10:33:08.489Z,96536.97
2023-02-19T10:35:37.961Z,96536.41
2023-02-19T10:38:06.755Z,96542.69
2023-02-19T10:40:33.682Z,96545.50
2023-02-19T10:43:03.982Z,96526.00
2023-02-19T10:45:52.918Z,96533.09
2023-02-19T10:48:30.620Z,96523.09
2023-02-19T10:51:04.849Z,96539.19
2023-02-19T10:53:49.058Z,96528.91
2023-02-19T10:56:27.019Z,96541.53
2023-02-19T10:58:53.862Z,96503.97
2023-02-19T11:01:23.187Z,96522.31
2023-02-19T11:04:17.315Z,96511.19
2023-02-19T11:06:45.643Z,96522.41
2023-02-19T11:09:46.182Z,96507.72
2023-02-19T11:12:14.549Z,96513.88
2023-02-19T11:14:45.631Z,96506.78
2023-02-19T11:17:28.953Z,96501.59
2023-02-19T11:20:14.985Z,96513.44
2023-02-19T11:22:49.869Z,96512.66
2023-02-19T11:25:17.031Z,96511.31
2023-02-19T11:28:20.602Z,96514.19
2023-02-19T11:30:47.660Z,96516.81
2023-02-19T11:33:22.298Z,96521.84
2023-02-19T11:35:52.157Z,96517.38
2023-02-19T11:38:19.680Z,96510.09
2023-02-19T11:41:06.826Z,96532.56
2023-02-19T11:43:46.550Z,96538.88
2023-02-19T11:46:37.914Z,96524.59
2023-02-19T11:49:40.913Z,96533.59
2023-02-19T11:52:20.581Z,96536.50
2023-02-19T11:54:57.770Z,96545.75
2023-02-19T11:57:36.637Z,96527.28
2023-02-19T12:00:24.754Z,96546.78
2023-02-19T12:03:27.092Z,96539.16
2023-02-19T12:06:18.520Z,96511.16
2023-02-19T12:09:32.173Z,96533.63
2023-02-19T12:12:09.891Z,96538.63
2023-02-19T12:14:48.576Z,96536.00
2023-02-19T12:17:56.909Z,96534.16
2023-02-19T12:20:41.683Z,96538.88
2023-02-19T12:23:39.068Z,96543.91
2023-02-19T12:26:29.546Z,96541.25
2023-02-19T12:29:27.092Z,96539.41
2023-02-19T12:32:18.091Z,96534.16
2023-02-19T12:35:08.295Z,96561.84
2023-02-19T12:38:12.141Z,96558.16
2023-02-19T12:40:50.664Z,96577.69
2023-02-19T12:43:20.773Z,96565.19
2023-02-19T12:45:58.835Z,96563.00
2023-02-19T12:48:31.762Z,96572.97
2023-02-19T12:51:07.736Z,96552.91
2023-02-19T12:53:58.724Z,96574.84
2023-02-19T12:56:31.020Z,96576.19
2023-02-19T12:59:05.586Z,96566.38
2023-02-19T13:01:41.665Z,96548.41
2023-02-19T13:04:40.075Z,96591.25
2023-02-19T13:07:14.233Z,96588.38
2023-02-19T13:10:16.043Z,96584.97
2023-02-19T13:12:45.086Z,96566.78
2023-02-19T13:15:20.809Z,96584.88
2023-02-19T13:17:52.027Z,96569.03
2023-02-19T13:20:27.594Z,96577.75
2023-02-19T13:23:20.373Z,96589.94
2023-02-19T13:26:17.629Z,96591.34
2023-02-19T13:29:12.766Z,96597.16
2023-02-19T13:32:13.410Z,96581.84
2023-02-19T13:34:49.052Z,96566.06
2023-02-19T13:37:16.830Z,96556.84
2023-02-19T13:39:49.859Z,96551.81
2023-02-19T13:42:32.821Z,96559.16
2023-02-19T13:45:00.504Z,96561.00
2023-02-19T13:47:45.676Z,96576.03
2023-02-19T13:50:23.080Z,96584.44
2023-02-19T13:52:50.879Z,96566.41
2023-02-19T13:55:42.644Z,96586.78
2023-02-19T13:58:34.662Z,96587.56
2023-02-19T14:01:09.845Z,96575.50
2023-02-19T14:03:50.822Z,96580.19
2023-02-19T14:06:17.692Z,96560.41
2023-02-19T14:08:57.599Z,96572.56
2023-02-19T14:11:42.246Z,96575.25
2023-02-19T14:14:26.062Z,96571.50
2023-02-19T14:17:04.409Z,96594.94
2023-02-19T14:19:43.021Z,96588.50
2023-02-19T14:22:47.338Z,96570.34
2023-02-19T14:25:32.053Z,96560.81
2023-02-19T14:28:10.916Z,96566.09
2023-02-19T14:30:53.799Z,96569.47
2023-02-19T14:33:26.668Z,96580.03
2023-02-19T14:35:58.917Z,96571.28
2023-02-19T14:38:31.669Z,96553.91
2023-02-19T14:40:58.799Z,96562.09
2023-02-19T14:43:27.583Z,96567.38
2023-02-19T14:45:56.896Z,96567.94
2023-02-19T14:48:33.737Z,96566.66
2023-02-19T14:51:07.151Z,96572.16
2023-02-19T14:53:39.382Z,96581.66
2023-02-19T14:56:17.871Z,96587.91
2023-02-19T14:58:44.408Z,96535.56
2023-02-19T15:01:28.268Z,96590.53
2023-02-19T15:03:56.507Z,96598.44
2023-02-19T15:06:24.389Z,96594.75
2023-02-19T15:08:56.947Z,96579.66
2023-02-19T15:11:29.239Z,96570.91
2023-02-19T15:13:59.582Z,96615.84
2023-02-19T15:16:29.088Z,96615.53
2023-02-19T15:18:57.842Z,96600.25
2023-02-19T15:21:27.832Z,96637.94
2023-02-19T15:24:00.066Z,96632.66
2023-02-19T15:26:38.229Z,96644.28
2023-02-19T15:29:17.142Z,96630.59
2023-02-19T15:31:46.808Z,96642.41
2023-02-19T15:34:19.017Z,96639.47
2023-02-19T15:36:46.396Z,96636.22
2023-02-19T15:39:23.623Z,96614.25
2023-02-19T15:42:02.217Z,96627.72
2023-02-19T15:44:41.808Z,96637.81
2023-02-19T15:47:33.325Z,96639.91
2023-02-19T15:50:19.834Z,96642.22
2023-02-19T15:53:15.911Z,96642.88
2023-02-19T15:56:07.314Z,96642.34
2023-02-19T15:58:53.674Z,96633.59
2023-02-19T16:01:30.173Z,96641.78
2023-02-19T16:03:58.394Z,96639.09
2023-02-19T16:06:26.810Z,96634.94
2023-02-19T16:09:02.464Z,96633.00
2023-02-19T16:11:38.250Z,96635.94
2023-02-19T16:14:35.329Z,96637.22
2023-02-19T16:17:10.827Z,96636.94
2023-02-19T16:19:43.665Z,96654.84
2023-02-19T16:22:17.430Z,96648.47
2023-02-19T16:24:46.268Z,96643.69
2023-02-19T16:27:14.879Z,96654.19
2023-02-19T16:29:41.494Z,96653.59
2023-02-19T16:32:16.996Z,96648.53
2023-02-19T16:34:47.084Z,96671.03
2023-02-19T16:37:35.208Z,96669.66
2023-02-19T16:40:24.706Z,96679.78
2023-02-19T16:42:51.954Z,96682.66
2023-02-19T16:45:19.084Z,96683.25
2023-02-19T16:47:48.380Z,96685.28
2023-02-19T16:50:18.448Z,96685.06
2023-02-19T16:52:57.008Z,96699.75
2023-02-19T16:55:24.284Z,96689.63
2023-02-19T16:57:50.876Z,96698.88
2023-02-19T17:00:35.950Z,96718.56
2023-02-19T17:03:09.392Z,96717.03
2023-02-19T17:05:37.820Z,96709.75
2023-02-19T17:08:29.031Z,96723.88
2023-02-19T17:10:56.293Z,96723.94
2023-02-19T17:13:22.864Z,96717.63
2023-02-19T17:15:49.273Z,96729.06
2023-02-19T17:18:15.806Z,96720.25
2023-02-19T17:20:45.421Z,96720.38
2023-02-19T17:23:11.847Z,96707.84
2023-02-19T17:25:38.350Z,96726.06
2023-02-19T17:28:05.006Z,96707.81
2023-02-19T17:30:33.121Z,96725.78
2023-02-19T17:32:59.887Z,96741.50
2023-02-19T17:35:26.494Z,96748.41
2023-02-19T17:37:55.617Z,96735.19
2023-02-19T17:40:32.392Z,96753.72
2023-02-19T17:42:59.576Z,96738.78
2023-02-19T17:45:27.468Z,96738.09
2023-02-19T17:47:54.448Z,96757.94
2023-02-19T17:50:25.173Z,96753.22
2023-02-19T17:52:51.673Z,96770.03
2023-02-19T17:55:19.008Z,96750.91
2023-02-19T17:57:49.910Z,96778.19
2023-02-19T18:00:22.343Z,96785.22
2023-02-19T18:02:48.951Z,96772.94
2023-02-19T18:05:15.609Z,96786.13
2023-02-19T18:07:42.042Z,96789.00
2023-02-19T18:10:09.264Z,96794.56
2023-02-19T18:12:36.077Z,96816.13
2023-02-19T18:15:02.538Z,96811.63
2023-02-19T18:17:29.008Z,96787.47
2023-02-19T18:19:55.489Z,96808.09
2023-02-19T18:22:21.978Z,96821.88
2023-02-19T18:24:50.913Z,96829.19
2023-02-19T18:27:23.349Z,96839.16
2023-02-19T18:29:54.681Z,96837.00
2023-02-19T18:32:23.330Z,96832.56
2023-02-19T18:34:52.835Z,96828.09
2023-02-19T18:37:20.171Z,96841.91
2023-02-19T18:39:47.004Z,96834.75
2023-02-19T18:42:14.287Z,96852.69
2023-02-19T18:44:40.914Z,96853.44
2023-02-19T18:47:08.518Z,96854.38
2023-02-19T18:49:35.553Z,96859.59
2023-02-19T18:52:02.032Z,96858.09
2023-02-19T18:54:30.403Z,96854.31
2023-02-19T18:56:57.955Z,96860.06
2023-02-19T18:59:24.467Z,96860.00
2023-02-19T19:01:51.432Z,96850.03
2023-02-19T19:04:18.185Z,96865.03
2023-02-19T19:06:44.795Z,96870.59
2023-02-19T19:09:11.366Z,96861.22
2023-02-19T19:11:38.384Z,96850.38
2023-02-19T19:14:04.807Z,96843.94
2023-02-19T19:16:31.269Z,96873.47
2023-02-19T19:18:57.694Z,96868.91
2023-02-19T19:21:24.462Z,96872.97
2023-02-19T19:23:51.370Z,96861.53
2023-02-19T19:26:18.252Z,96869.97
2023-02-19T19:28:44.875Z,96863.06
2023-02-19T19:31:13.928Z,96868.31
2023-02-19T19:33:41.805Z,96867.38
2023-02-19T19:36:09.804Z,96871.50
2023-02-19T19:38:36.579Z,96866.69
2023-02-19T19:41:03.844Z,96852.03
2023-02-19T19:43:31.762Z,96860.97
2023-02-19T19:45:59.297Z,96860.97
2023-02-19T19:48:27.631Z,96857.31
2023-02-19T19:50:56.663Z,96851.34
2023-02-19T19:53:23.894Z,96854.69
2023-02-19T19:55:50.524Z,96842.69
2023-02-19T19:58:20.789Z,96866.97
2023-02-19T20:00:47.284Z,96874.91
2023-02-19T20:03:14.071Z,96845.88
2023-02-19T20:05:40.599Z,96875.22
2023-02-19T20:08:07.060Z,96870.69
2023-02-19T20:10:33.509Z,96864.00
2023-02-19T20:13:00.261Z,96872.75
2023-02-19T20:15:26.708Z,96872.16
2023-02-19T20:17:53.219Z,96879.44
2023-02-19T20:20:20.326Z,96868.31
2023-02-19T20:22:46.747Z,96867.19
2023-02-19T20:25:13.325Z,96871.28
2023-02-19T20:27:39.800Z,96869.19
2023-02-19T20:30:08.388Z,96869.59
2023-02-19T20:32:36.321Z,96862.56
2023-02-19T20:35:02.842Z,96867.66
2023-02-19T20:37:29.324Z,96875.16
2023-02-19T20:39:55.794Z,96892.53
2023-02-19T20:42:22.411Z,96879.16
2023-02-19T20:44:48.899Z,96878.50
2023-02-19T20:47:15.434Z,96872.53
2023-02-19T20:49:46.331Z,96881.84
2023-02-19T20:52:15.898Z,96884.25
2023-02-19T20:54:43.951Z,96875.22
2023-02-19T20:57:12.873Z,96862.41
2023-02-19T20:59:41.871Z,96882.34
2023-02-19T21:02:15.543Z,96881.22
2023-02-19T21:04:42.032Z,96880.34
2023-02-19T21:07:08.524Z,96891.88
2023-02-19T21:09:34.942Z,96886.63
2023-02-19T21:12:01.376Z,96900.97
2023-02-19T21:14:27.853Z,96902.97
2023-02-19T21:16:54.443Z,96891.66
2023-02-19T21:19:21.672Z,96892.03
2023-02-19T21:21:48.233Z,96897.22
2023-02-19T21:24:15.523Z,96896.75
2023-02-19T21:26:43.009Z,96902.66
2023-02-19T21:29:13.893Z,96906.88
2023-02-19T21:31:43.184Z,96899.03
2023-02-19T21:34:11.870Z,96909.56
2023-02-19T21:36:38.561Z,96889.34
2023-02-19T21:39:07.063Z,96890.28
2023-02-19T21:41:33.906Z,96883.09
2023-02-19T21:44:00.499Z,96888.38
2023-02-19T21:46:27.276Z,96885.13
2023-02-19T21:48:55.972Z,96890.00
2023-02-19T21:51:32.233Z,96897.88
2023-02-19T21:53:59.525Z,96885.66
2023-02-19T21:56:28.521Z,96893.16
2023-02-19T21:58:55.696Z,96873.63
2023-02-19T22:01:31.284Z,96884.00
2023-02-19T22:03:57.949Z,96850.31
2023-02-19T22:06:28.926Z,96868.69
2023-02-19T22:08:55.754Z,96895.69
2023-02-19T22:11:22.731Z,96879.75
2023-02-19T22:13:49.538Z,96881.94
2023-02-19T22:16:17.015Z,96905.09
2023-02-19T22:18:48.395Z,96890.75
2023-02-19T22:21:15.416Z,96878.66
2023-02-19T22:23:46.370Z,96896.50
2023-02-19T22:26:25.160Z,96903.91
2023-02-19T22:28:52.088Z,96889.31
2023-02-19T22:31:21.335Z,96892.44
2023-02-19T22:33:47.889Z,96899.84
2023-02-19T22:36:23.261Z,96887.72
2023-02-19T22:38:50.209Z,96894.53
2023-02-19T22:41:17.942Z,96889.34
2023-02-19T22:43:44.879Z,96903.91
2023-02-19T22:46:16.961Z,96887.41
2023-02-19T22:48:43.558Z,96892.59
2023-02-19T22:51:14.988Z,96887.25
2023-02-19T22:53:56.172Z,96894.25
2023-02-19T22:56:25.284Z,96889.31
2023-02-19T22:58:52.841Z,96891.72
2023-02-19T23:01:20.166Z,96889.56
2023-02-19T23:03:54.873Z,96914.66
2023-02-19T23:06:27.788Z,96909.88
2023-02-19T23:08:56.515Z,96907.94
2023-02-19T23:11:29.581Z,96927.50
2023-02-19T23:13:57.620Z,96926.53
2023-02-19T23:16:24.789Z,96929.78
2023-02-19T23:18:51.577Z,96930.72
2023-02-19T23:21:18.949Z,96933.94
2023-02-19T23:23:45.828Z,96943.47
2023-02-19T23:26:13.940Z,96943.16
2023-02-19T23:28:41.748Z,96944.09
2023-02-19T23:31:08.804Z,96927.69
2023-02-19T23:33:35.667Z,96915.72
2023-02-19T23:36:02.081Z,96915.44
2023-02-19T23:38:28.629Z,96933.59
2023-02-19T23:40:55.059Z,96921.09
2023-02-19T23:43:21.607Z,96935.91
2023-02-19T23:45:48.075Z,96939.75
2023-02-19T23:48:14.545Z,96939.06
2023-02-19T23:50:41.015Z,96934.38
2023-02-19T23:53:07.983Z,96925.69
2023-02-19T23:55:34.817Z,96928.50
2023-02-19T23:58:01.458Z,96946.97
